createdAt,value
2018-08-18T00:00:21.992Z,74.54
2018-08-18T00:02:50.823Z,73.99
2018-08-18T00:05:20.367Z,74.67
2018-08-18T00:07:49.080Z,74.88
2018-08-18T00:10:19.688Z,74.69
2018-08-18T00:12:48.403Z,75.13
2018-08-18T00:15:17.329Z,75.56
2018-08-18T00:17:46.140Z,75.36
2018-08-18T00:20:16.884Z,75.15
2018-08-18T00:22:45.749Z,75.36
2018-08-18T00:25:14.407Z,76.01
2018-08-18T00:27:43.125Z,76.31
2018-08-18T00:30:17.242Z,77.12
2018-08-18T00:32:46.124Z,77.00
2018-08-18T00:35:15.107Z,76.57
2018-08-18T00:37:43.755Z,76.22
2018-08-18T00:40:13.039Z,76.82
2018-08-18T00:42:42.023Z,77.03
2018-08-18T00:45:12.252Z,77.95
2018-08-18T00:47:41.517Z,78.25
2018-08-18T00:50:11.012Z,78.84
2018-08-18T00:52:39.976Z,79.35
2018-08-18T00:55:08.771Z,79.26
2018-08-18T00:57:37.633Z,80.34
2018-08-18T01:00:07.616Z,79.70
2018-08-18T01:02:36.517Z,79.94
2018-08-18T01:05:05.986Z,80.64
2018-08-18T01:07:34.843Z,80.77
2018-08-18T01:10:04.128Z,81.18
2018-08-18T01:12:33.038Z,80.96
2018-08-18T01:15:01.836Z,81.26
2018-08-18T01:17:30.608Z,81.32
2018-08-18T01:19:59.751Z,81.41
2018-08-18T01:22:28.442Z,81.50
2018-08-18T01:24:57.341Z,81.50
2018-08-18T01:27:26.483Z,81.43
2018-08-18T01:30:00.424Z,81.37
2018-08-18T01:32:31.668Z,82.16
2018-08-18T01:35:00.634Z,81.48
2018-08-18T01:37:31.560Z,81.82
2018-08-18T01:40:00.264Z,82.47
2018-08-18T01:42:31.903Z,82.58
2018-08-18T01:45:00.484Z,83.18
2018-08-18T01:47:29.860Z,82.69
2018-08-18T01:50:04.374Z,82.09
2018-08-18T01:52:33.799Z,82.09
2018-08-18T01:55:02.551Z,82.42
2018-08-18T01:57:31.237Z,83.43
2018-08-18T02:00:00.761Z,83.58
2018-08-18T02:02:30.159Z,83.66
2018-08-18T02:05:07.151Z,83.52
2018-08-18T02:07:35.912Z,83.97
2018-08-18T02:10:06.220Z,84.51
2018-08-18T02:12:35.336Z,83.71
2018-08-18T02:15:04.305Z,84.89
2018-08-18T02:17:34.904Z,84.71
2018-08-18T02:20:04.197Z,85.41
2018-08-18T02:22:33.267Z,85.58
2018-08-18T02:25:01.955Z,84.46
2018-08-18T02:27:32.216Z,85.21
2018-08-18T02:30:23.787Z,85.78
2018-08-18T02:32:52.748Z,85.04
2018-08-18T02:35:23.192Z,86.24
2018-08-18T02:37:51.823Z,85.76
2018-08-18T02:40:20.526Z,85.76
2018-08-18T02:42:49.359Z,86.13
2018-08-18T02:45:18.096Z,87.08
2018-08-18T02:47:47.038Z,87.81
2018-08-18T02:50:15.813Z,87.94
2018-08-18T02:52:45.814Z,87.73
2018-08-18T02:55:14.712Z,88.16
2018-08-18T02:57:45.630Z,88.04
2018-08-18T03:00:37.729Z,87.80
2018-08-18T03:03:06.578Z,86.93
2018-08-18T03:05:35.701Z,87.00
2018-08-18T03:08:04.896Z,87.37
2018-08-18T03:10:33.903Z,87.66
2018-08-18T03:13:02.552Z,88.00
2018-08-18T03:16:03.602Z,88.86
2018-08-18T03:18:46.433Z,88.99
2018-08-18T03:21:15.531Z,89.08
2018-08-18T03:23:56.128Z,89.48
2018-08-18T03:26:30.187Z,90.57
2018-08-18T03:28:59.340Z,90.20
2018-08-18T03:31:28.441Z,90.52
2018-08-18T03:33:57.104Z,90.37
2018-08-18T03:36:28.977Z,90.14
2018-08-18T03:38:58.203Z,90.79
2018-08-18T03:41:28.011Z,90.28
2018-08-18T03:43:57.798Z,89.91
2018-08-18T03:46:26.564Z,89.94
2018-08-18T03:48:55.595Z,90.65
2018-08-18T03:51:30.650Z,90.65
2018-08-18T03:54:00.575Z,90.43
2018-08-18T03:56:29.770Z,91.04
2018-08-18T03:58:59.410Z,90.12
2018-08-18T04:04:26.369Z,90.88
2018-08-18T04:06:56.350Z,91.32
2018-08-18T04:09:27.934Z,91.70
2018-08-18T04:11:58.531Z,91.70
2018-08-18T04:14:44.584Z,91.56
2018-08-18T04:17:25.699Z,91.73
2018-08-18T04:19:55.013Z,93.56
2018-08-18T04:22:24.009Z,96.43
2018-08-18T04:24:52.772Z,95.21
2018-08-18T04:27:40.543Z,95.71
2018-08-18T04:30:11.651Z,96.42
2018-08-18T04:33:02.783Z,95.86
2018-08-18T04:35:32.474Z,95.36
2018-08-18T04:38:05.060Z,94.16
2018-08-18T04:40:35.544Z,93.86
2018-08-18T04:43:04.304Z,93.21
2018-08-18T04:45:33.549Z,94.68
2018-08-18T04:48:02.432Z,94.97
2018-08-18T04:50:31.202Z,92.98
2018-08-18T04:53:00.014Z,93.86
2018-08-18T04:55:29.184Z,93.70
2018-08-18T04:57:58.340Z,93.65
2018-08-18T05:00:31.323Z,93.83
2018-08-18T05:03:00.649Z,94.40
2018-08-18T05:05:31.537Z,94.21
2018-08-18T05:08:01.579Z,94.08
2018-08-18T05:10:30.506Z,93.30
2018-08-18T05:12:59.340Z,94.75
2018-08-18T05:15:28.554Z,95.44
2018-08-18T05:17:57.384Z,95.22
2018-08-18T05:20:27.128Z,93.94
2018-08-18T05:22:57.775Z,94.55
2018-08-18T05:25:36.621Z,94.11
2018-08-18T05:28:05.414Z,93.60
2018-08-18T05:30:34.098Z,93.36
2018-08-18T05:33:02.756Z,93.34
2018-08-18T05:35:31.748Z,92.24
2018-08-18T05:38:01.464Z,91.11
2018-08-18T05:40:30.668Z,90.49
2018-08-18T05:42:59.252Z,90.20
2018-08-18T05:45:31.443Z,90.96
2018-08-18T05:48:00.619Z,90.63
2018-08-18T05:50:30.183Z,91.10
2018-08-18T05:53:24.120Z,90.77
2018-08-18T05:55:53.086Z,89.32
2018-08-18T05:58:21.857Z,90.21
2018-08-18T06:00:56.788Z,86.81
2018-08-18T06:03:31.660Z,87.37
2018-08-18T06:06:00.691Z,84.54
2018-08-18T06:08:29.547Z,82.75
2018-08-18T06:10:58.428Z,82.84
2018-08-18T06:13:27.288Z,82.28
2018-08-18T06:16:09.423Z,82.00
2018-08-18T06:18:39.480Z,81.61
2018-08-18T06:21:08.542Z,80.83
2018-08-18T06:23:38.364Z,80.75
2018-08-18T06:26:07.740Z,80.25
2018-08-18T06:28:36.425Z,80.52
2018-08-18T06:31:05.543Z,80.76
2018-08-18T06:33:34.195Z,79.56
2018-08-18T06:36:03.703Z,77.80
2018-08-18T06:38:32.727Z,77.52
2018-08-18T06:41:02.824Z,77.36
2018-08-18T06:43:33.674Z,75.47
2018-08-18T06:46:03.181Z,74.84
2018-08-18T06:48:34.795Z,73.28
2018-08-18T06:51:03.976Z,73.12
2018-08-18T06:53:38.689Z,73.01
2018-08-18T06:56:08.368Z,73.25
2018-08-18T06:58:37.486Z,71.77
2018-08-18T07:01:06.931Z,71.77
2018-08-18T07:03:43.268Z,70.15
2018-08-18T07:06:13.531Z,67.41
2018-08-18T07:08:47.492Z,65.62
2018-08-18T07:11:16.248Z,64.64
2018-08-18T07:13:45.768Z,62.38
2018-08-18T07:16:14.596Z,61.81
2018-08-18T07:18:43.336Z,60.87
2018-08-18T07:21:12.144Z,59.47
2018-08-18T07:23:40.957Z,60.22
2018-08-18T07:26:09.615Z,59.56
2018-08-18T07:28:38.552Z,59.83
2018-08-18T07:31:07.450Z,59.18
2018-08-18T07:33:36.331Z,60.04
2018-08-18T07:36:05.113Z,60.15
2018-08-18T07:38:33.744Z,60.55
2018-08-18T07:41:02.675Z,60.95
2018-08-18T07:43:32.852Z,62.35
2018-08-18T07:49:03.165Z,61.16
2018-08-18T07:51:31.879Z,59.80
2018-08-18T07:54:00.432Z,58.40
2018-08-18T07:56:29.678Z,60.40
2018-08-18T07:58:58.598Z,57.33
2018-08-18T08:01:27.815Z,57.72
2018-08-18T08:03:57.401Z,57.31
2018-08-18T08:06:27.821Z,57.90
2018-08-18T08:08:56.833Z,58.68
2018-08-18T08:11:26.135Z,57.08
2018-08-18T08:13:54.748Z,56.27
2018-08-18T08:16:23.362Z,55.75
2018-08-18T08:18:52.606Z,54.54
2018-08-18T08:21:21.406Z,57.11
2018-08-18T08:23:49.965Z,57.47
2018-08-18T08:26:18.642Z,56.51
2018-08-18T08:28:47.111Z,55.21
2018-08-18T08:31:15.988Z,55.32
2018-08-18T08:33:44.853Z,56.16
2018-08-18T08:36:14.948Z,56.58
2018-08-18T08:38:55.198Z,54.53
2018-08-18T08:41:24.827Z,55.24
2018-08-18T08:43:54.264Z,55.09
2018-08-18T08:46:22.917Z,53.83
2018-08-18T08:48:54.534Z,54.36
2018-08-18T08:51:23.472Z,55.80
2018-08-18T08:53:53.038Z,55.69
2018-08-18T08:56:27.639Z,54.98
2018-08-18T08:58:56.453Z,55.32
2018-08-18T09:01:26.455Z,57.62
2018-08-18T09:03:55.298Z,55.70
2018-08-18T09:06:25.804Z,55.33
2018-08-18T09:09:53.523Z,55.35
2018-08-18T09:12:22.421Z,54.44
2018-08-18T09:14:51.047Z,55.43
2018-08-18T09:17:22.669Z,54.68
2018-08-18T09:19:51.297Z,54.31
2018-08-18T09:22:20.124Z,53.25
2018-08-18T09:24:49.754Z,53.38
2018-08-18T09:27:18.415Z,52.07
2018-08-18T09:29:47.713Z,52.85
2018-08-18T09:32:17.660Z,52.51
2018-08-18T09:34:54.528Z,52.63
2018-08-18T09:37:23.198Z,51.79
2018-08-18T09:39:51.910Z,51.98
2018-08-18T09:42:21.353Z,51.49
2018-08-18T09:44:52.549Z,51.07
2018-08-18T09:47:21.441Z,52.26
2018-08-18T09:49:51.156Z,53.66
2018-08-18T09:52:22.092Z,53.25
2018-08-18T09:54:50.706Z,53.58
2018-08-18T09:57:21.245Z,53.09
2018-08-18T09:59:49.761Z,51.66
2018-08-18T10:02:18.452Z,50.30
2018-08-18T10:04:47.537Z,50.21
2018-08-18T10:07:17.183Z,50.16
2018-08-18T10:09:45.956Z,49.82
2018-08-18T10:12:14.932Z,49.91
2018-08-18T10:14:43.688Z,51.42
2018-08-18T10:17:12.932Z,52.49
2018-08-18T10:19:42.997Z,52.36
2018-08-18T10:22:12.553Z,51.13
2018-08-18T10:24:41.708Z,50.70
2018-08-18T10:27:11.239Z,51.00
2018-08-18T10:29:39.966Z,50.02
2018-08-18T10:32:09.337Z,48.35
2018-08-18T10:34:38.026Z,48.77
2018-08-18T10:37:24.821Z,49.17
2018-08-18T10:39:57.476Z,49.96
2018-08-18T10:42:26.187Z,46.78
2018-08-18T10:45:00.329Z,47.51
2018-08-18T10:47:29.162Z,47.39
2018-08-18T10:50:09.243Z,44.71
2018-08-18T10:52:49.142Z,42.26
2018-08-18T10:55:18.745Z,43.39
2018-08-18T10:57:58.097Z,43.30
2018-08-18T11:00:28.434Z,39.84
2018-08-18T11:02:59.087Z,42.90
2018-08-18T11:05:28.476Z,45.12
2018-08-18T11:08:02.567Z,41.74
2018-08-18T11:10:32.648Z,41.93
2018-08-18T11:13:01.648Z,38.01
2018-08-18T11:15:32.491Z,39.61
2018-08-18T11:18:04.615Z,42.73
2018-08-18T11:20:35.743Z,41.41
2018-08-18T11:23:09.441Z,39.64
2018-08-18T11:25:42.476Z,40.47
2018-08-18T11:28:12.117Z,40.23
2018-08-18T11:30:41.989Z,36.21
2018-08-18T11:33:11.126Z,37.15
2018-08-18T11:35:41.167Z,36.12
2018-08-18T11:38:12.848Z,34.27
2018-08-18T11:40:41.666Z,35.76
2018-08-18T11:43:12.464Z,34.99
2018-08-18T11:45:42.592Z,35.17
2018-08-18T11:48:20.485Z,36.08
2018-08-18T11:50:50.630Z,33.47
2018-08-18T11:53:20.134Z,33.82
2018-08-18T11:55:48.831Z,33.52
2018-08-18T11:58:19.284Z,36.47
2018-08-18T12:00:51.095Z,35.08
2018-08-18T12:03:22.389Z,35.20
2018-08-18T12:05:55.049Z,33.53
2018-08-18T12:08:25.032Z,35.06
2018-08-18T12:10:55.572Z,35.02
2018-08-18T12:13:31.339Z,32.39
2018-08-18T12:16:11.258Z,34.63
2018-08-18T12:18:43.131Z,34.14
2018-08-18T12:21:12.313Z,35.33
2018-08-18T12:23:44.130Z,33.59
2018-08-18T12:26:19.043Z,34.33
2018-08-18T12:28:51.315Z,32.58
2018-08-18T12:31:21.611Z,34.82
2018-08-18T12:33:50.324Z,32.52
2018-08-18T12:36:19.133Z,34.10
2018-08-18T12:38:49.712Z,34.81
2018-08-18T12:41:18.264Z,37.08
2018-08-18T12:43:48.589Z,35.78
2018-08-18T12:46:18.820Z,37.73
2018-08-18T12:48:50.510Z,37.87
2018-08-18T12:51:19.804Z,38.78
2018-08-18T12:53:50.848Z,36.74
2018-08-18T12:56:21.582Z,35.36
2018-08-18T12:58:50.136Z,34.36
2018-08-18T13:01:39.116Z,33.78
2018-08-18T13:04:10.123Z,34.21
2018-08-18T13:06:48.972Z,34.63
2018-08-18T13:09:19.691Z,37.20
2018-08-18T13:11:49.855Z,39.15
2018-08-18T13:14:23.096Z,40.84
2018-08-18T13:16:52.067Z,40.63
2018-08-18T13:19:22.991Z,40.06
2018-08-18T13:21:51.627Z,34.50
2018-08-18T13:24:20.475Z,32.26
2018-08-18T13:26:49.261Z,33.11
2018-08-18T13:29:17.877Z,31.77
2018-08-18T13:31:46.743Z,34.87
2018-08-18T13:34:16.509Z,38.44
2018-08-18T13:36:46.834Z,39.16
2018-08-18T13:39:17.757Z,33.47
2018-08-18T13:41:49.066Z,32.19
2018-08-18T13:44:24.123Z,29.88
2018-08-18T13:46:53.499Z,31.03
2018-08-18T13:49:24.274Z,36.71
2018-08-18T13:51:53.064Z,38.45
2018-08-18T13:54:21.543Z,38.97
2018-08-18T13:56:50.718Z,40.81
2018-08-18T13:59:34.616Z,41.46
2018-08-18T14:02:07.096Z,40.84
2018-08-18T14:04:36.111Z,37.16
2018-08-18T14:07:05.260Z,42.49
2018-08-18T14:09:33.771Z,33.01
2018-08-18T14:12:07.559Z,35.33
2018-08-18T14:14:36.445Z,38.13
2018-08-18T14:17:05.132Z,40.47
2018-08-18T14:19:34.409Z,41.84
2018-08-18T14:22:06.435Z,42.26
2018-08-18T14:24:36.516Z,43.06
2018-08-18T14:27:16.520Z,44.43
2018-08-18T14:29:45.623Z,42.85
2018-08-18T14:32:20.996Z,43.26
2018-08-18T14:34:55.896Z,35.21
2018-08-18T14:37:24.758Z,38.76
2018-08-18T14:39:53.272Z,38.85
2018-08-18T14:42:22.057Z,39.99
2018-08-18T14:44:50.691Z,40.97
2018-08-18T14:47:20.364Z,42.78
2018-08-18T14:49:49.065Z,41.85
2018-08-18T14:52:18.410Z,42.95
2018-08-18T14:54:46.930Z,41.10
2018-08-18T14:57:15.803Z,41.95
2018-08-18T14:59:44.624Z,42.46
2018-08-18T15:02:17.418Z,41.91
2018-08-18T15:04:46.129Z,41.68
2018-08-18T15:07:15.104Z,42.24
2018-08-18T15:09:45.246Z,42.84
2018-08-18T15:12:14.098Z,41.98
2018-08-18T15:14:43.136Z,41.97
2018-08-18T15:17:12.545Z,42.78
2018-08-18T15:19:41.358Z,42.93
2018-08-18T15:22:11.700Z,43.00
2018-08-18T15:24:40.511Z,43.21
2018-08-18T15:27:09.499Z,42.40
2018-08-18T15:29:38.521Z,43.31
2018-08-18T15:32:07.185Z,44.10
2018-08-18T15:34:35.715Z,43.11
2018-08-18T15:37:05.539Z,43.94
2018-08-18T15:39:34.796Z,44.58
2018-08-18T15:42:04.154Z,44.43
2018-08-18T15:44:37.087Z,46.38
2018-08-18T15:47:06.000Z,43.92
2018-08-18T15:49:34.955Z,43.97
2018-08-18T15:52:04.868Z,45.30
2018-08-18T15:54:35.090Z,44.04
2018-08-18T15:57:03.733Z,44.11
2018-08-18T15:59:36.212Z,44.01
2018-08-18T16:02:06.948Z,44.52
2018-08-18T16:04:38.903Z,44.52
2018-08-18T16:07:10.784Z,43.96
2018-08-18T16:09:39.653Z,45.03
2018-08-18T16:12:08.623Z,44.58
2018-08-18T16:14:38.524Z,44.17
2018-08-18T16:17:07.281Z,43.87
2018-08-18T16:19:36.775Z,43.51
2018-08-18T16:22:06.562Z,44.63
2018-08-18T16:24:41.657Z,46.06
2018-08-18T16:27:10.664Z,45.23
2018-08-18T16:29:39.903Z,45.57
2018-08-18T16:32:22.052Z,46.06
2018-08-18T16:35:03.575Z,45.11
2018-08-18T16:37:39.477Z,45.69
2018-08-18T16:40:09.401Z,44.75
2018-08-18T16:42:40.422Z,46.71
2018-08-18T16:45:12.087Z,46.70
2018-08-18T16:47:54.847Z,46.58
2018-08-18T16:50:25.301Z,45.83
2018-08-18T16:52:55.798Z,46.81
2018-08-18T16:55:24.707Z,47.56
2018-08-18T16:57:53.363Z,48.33
2018-08-18T17:00:22.194Z,45.32
2018-08-18T17:02:50.937Z,47.45
2018-08-18T17:05:19.756Z,48.15
2018-08-18T17:07:48.866Z,49.03
2018-08-18T17:10:18.612Z,48.16
2018-08-18T17:12:47.610Z,49.00
2018-08-18T17:15:16.803Z,48.39
2018-08-18T17:17:45.678Z,49.21
2018-08-18T17:20:14.732Z,49.88
2018-08-18T17:22:44.475Z,49.87
2018-08-18T17:25:13.239Z,50.05
2018-08-18T17:27:43.287Z,50.19
2018-08-18T17:30:12.573Z,50.39
2018-08-18T17:32:48.673Z,51.34
2018-08-18T17:35:19.177Z,50.70
2018-08-18T17:37:48.499Z,49.59
2018-08-18T17:40:18.969Z,49.50
2018-08-18T17:42:47.568Z,52.02
2018-08-18T17:45:16.621Z,52.61
2018-08-18T17:47:51.020Z,53.76
2018-08-18T17:50:19.635Z,53.67
2018-08-18T17:52:48.684Z,53.36
2018-08-18T17:55:19.217Z,55.37
2018-08-18T17:57:48.762Z,55.81
2018-08-18T18:00:23.034Z,55.69
2018-08-18T18:03:00.571Z,56.02
2018-08-18T18:05:32.304Z,56.15
2018-08-18T18:08:04.631Z,57.35
2018-08-18T18:10:35.060Z,56.63
2018-08-18T18:13:15.588Z,56.67
2018-08-18T18:15:47.342Z,58.64
2018-08-18T18:18:19.206Z,58.97
2018-08-18T18:20:49.097Z,60.33
2018-08-18T18:23:19.276Z,58.22
2018-08-18T18:25:48.560Z,61.29
2018-08-18T18:28:18.754Z,60.66
2018-08-18T18:30:47.646Z,62.49
2018-08-18T18:33:17.334Z,61.75
2018-08-18T18:35:46.184Z,62.66
2018-08-18T18:38:14.833Z,62.51
2018-08-18T18:40:44.941Z,64.68
2018-08-18T18:43:13.593Z,63.87
2018-08-18T18:45:42.679Z,63.90
2018-08-18T18:48:13.994Z,63.97
2018-08-18T18:50:45.416Z,64.84
2018-08-18T18:53:14.320Z,65.82
2018-08-18T18:55:48.009Z,66.58
2018-08-18T18:58:16.540Z,65.95
2018-08-18T19:01:06.441Z,66.37
2018-08-18T19:03:37.172Z,66.72
2018-08-18T19:06:07.735Z,66.66
2018-08-18T19:08:52.196Z,66.46
2018-08-18T19:11:22.658Z,66.56
2018-08-18T19:13:54.493Z,68.19
2018-08-18T19:16:23.623Z,68.39
2018-08-18T19:18:52.325Z,69.32
2018-08-18T19:21:22.200Z,70.01
2018-08-18T19:23:50.867Z,70.39
2018-08-18T19:26:20.313Z,70.06
2018-08-18T19:28:49.222Z,70.29
2018-08-18T19:31:19.445Z,70.89
2018-08-18T19:33:48.704Z,70.91
2018-08-18T19:36:18.032Z,71.97
2018-08-18T19:38:47.098Z,72.47
2018-08-18T19:41:15.824Z,73.19
2018-08-18T19:43:45.583Z,74.00
2018-08-18T19:46:14.934Z,73.71
2018-08-18T19:48:52.906Z,74.36
2018-08-18T19:51:22.835Z,74.90
2018-08-18T19:53:51.745Z,75.22
2018-08-18T19:56:21.052Z,75.19
2018-08-18T19:58:49.795Z,75.45
2018-08-18T20:01:19.373Z,76.09
2018-08-18T20:03:48.534Z,75.99
2018-08-18T20:06:21.251Z,77.13
2018-08-18T20:08:50.055Z,77.45
2018-08-18T20:11:18.757Z,77.23
2018-08-18T20:13:47.451Z,78.06
2018-08-18T20:16:16.123Z,78.77
2018-08-18T20:18:44.748Z,78.72
2018-08-18T20:21:14.434Z,79.14
2018-08-18T20:23:43.178Z,79.37
2018-08-18T20:26:12.452Z,79.64
2018-08-18T20:28:41.370Z,80.27
2018-08-18T20:31:10.448Z,80.18
2018-08-18T20:33:40.811Z,81.58
2018-08-18T20:36:10.295Z,81.17
2018-08-18T20:38:43.472Z,80.62
2018-08-18T20:41:12.285Z,81.21
2018-08-18T20:43:41.936Z,81.56
2018-08-18T20:46:10.601Z,81.48
2018-08-18T20:48:39.289Z,82.03
2018-08-18T20:51:07.966Z,82.13
2018-08-18T20:53:36.568Z,82.75
2018-08-18T20:56:05.475Z,82.53
2018-08-18T20:58:35.620Z,84.13
2018-08-18T21:01:04.219Z,83.35
2018-08-18T21:03:48.370Z,83.89
2018-08-18T21:06:19.086Z,83.89
2018-08-18T21:08:48.588Z,83.89
2018-08-18T21:11:17.639Z,84.43
2018-08-18T21:13:48.041Z,84.91
2018-08-18T21:16:20.070Z,85.09
2018-08-18T21:18:48.869Z,84.89
2018-08-18T21:21:35.999Z,85.83
2018-08-18T21:24:05.284Z,85.26
2018-08-18T21:26:33.853Z,85.61
2018-08-18T21:29:04.038Z,86.33
2018-08-18T21:31:36.685Z,86.40
2018-08-18T21:34:06.593Z,86.52
2018-08-18T21:36:36.904Z,86.90
2018-08-18T21:39:08.670Z,87.25
2018-08-18T21:41:38.190Z,87.40
2018-08-18T21:44:08.397Z,87.83
2018-08-18T21:46:37.067Z,87.77
2018-08-18T21:49:14.224Z,88.01
2018-08-18T21:51:43.974Z,87.83
2018-08-18T21:54:19.396Z,88.57
2018-08-18T21:56:51.681Z,88.27
2018-08-18T21:59:20.507Z,88.23
2018-08-18T22:01:50.595Z,88.31
2018-08-18T22:04:19.327Z,89.05
2018-08-18T22:06:48.184Z,88.96
2018-08-18T22:09:28.762Z,89.11
2018-08-18T22:11:57.764Z,89.62
2018-08-18T22:14:26.376Z,89.04
2018-08-18T22:16:58.274Z,89.46
2018-08-18T22:19:28.183Z,89.25
2018-08-18T22:21:57.152Z,89.73
2018-08-18T22:24:25.727Z,90.34
2018-08-18T22:26:54.284Z,89.85
2018-08-18T22:29:25.476Z,90.97
2018-08-18T22:31:54.360Z,90.47
2018-08-18T22:34:22.954Z,90.95
2018-08-18T22:37:01.543Z,91.67
2018-08-18T22:39:30.541Z,91.52
2018-08-18T22:41:59.503Z,91.41
2018-08-18T22:44:28.284Z,91.29
2018-08-18T22:46:57.676Z,91.44
2018-08-18T22:49:26.487Z,92.28
2018-08-18T22:51:55.503Z,91.52
2018-08-18T22:54:24.049Z,91.95
2018-08-18T22:56:57.752Z,91.84
2018-08-18T22:59:26.454Z,91.92
2018-08-18T23:01:56.264Z,92.11
2018-08-18T23:04:31.224Z,92.75
2018-08-18T23:07:02.119Z,93.14
2018-08-18T23:09:31.981Z,92.91
2018-08-18T23:12:02.282Z,93.14
2018-08-18T23:17:21.468Z,93.12
2018-08-18T23:19:50.822Z,92.92
2018-08-18T23:22:30.871Z,92.86
2018-08-18T23:25:00.080Z,94.13
2018-08-18T23:27:29.201Z,93.58
2018-08-18T23:29:58.055Z,93.62
2018-08-18T23:32:26.831Z,93.68
2018-08-18T23:34:57.424Z,93.90
2018-08-18T23:37:26.231Z,94.20
2018-08-18T23:39:56.630Z,94.34
2018-08-18T23:42:26.588Z,94.35
2018-08-18T23:45:01.582Z,94.67
2018-08-18T23:47:30.692Z,95.17
2018-08-18T23:49:59.228Z,95.34
2018-08-18T23:52:27.937Z,95.32
2018-08-18T23:54:56.615Z,95.61
2018-08-18T23:57:25.263Z,95.49
2018-08-18T23:59:54.386Z,96.70
